sensor_id;sensor_type;location;lat;lon;timestamp;pressure;altitude;pressure_sealevel;temperature;humidity
46722;BME280;32455;43.430;23.136;2023-02-21T00:03:01;98381.53;;;8.27;57.57
46722;BME280;32455;43.430;23.136;2023-02-21T00:06:08;98372.50;;;8.42;56.42
46722;BME280;32455;43.430;23.136;2023-02-21T00:09:12;98363.56;;;8.01;58.24
46722;BME280;32455;43.430;23.136;2023-02-21T00:12:16;98361.84;;;7.81;58.62
46722;BME280;32455;43.430;23.136;2023-02-21T00:15:20;98355.63;;;8.81;55.20
46722;BME280;32455;43.430;23.136;2023-02-21T00:18:24;98345.94;;;8.60;55.86
46722;BME280;32455;43.430;23.136;2023-02-21T00:21:29;98339.78;;;8.53;56.58
46722;BME280;32455;43.430;23.136;2023-02-21T00:24:33;98341.44;;;8.87;55.34
46722;BME280;32455;43.430;23.136;2023-02-21T00:27:37;98341.84;;;8.44;56.30
46722;BME280;32455;43.430;23.136;2023-02-21T00:30:42;98337.91;;;8.73;54.87
46722;BME280;32455;43.430;23.136;2023-02-21T00:33:46;98340.19;;;8.96;54.06
46722;BME280;32455;43.430;23.136;2023-02-21T00:36:53;98330.47;;;8.82;55.83
46722;BME280;32455;43.430;23.136;2023-02-21T00:39:58;98327.81;;;8.75;55.18
46722;BME280;32455;43.430;23.136;2023-02-21T00:43:02;98319.56;;;8.77;55.26
46722;BME280;32455;43.430;23.136;2023-02-21T00:46:06;98302.00;;;9.08;53.98
46722;BME280;32455;43.430;23.136;2023-02-21T00:49:10;98304.41;;;9.36;53.25
46722;BME280;32455;43.430;23.136;2023-02-21T00:52:14;98288.91;;;9.44;52.89
46722;BME280;32455;43.430;23.136;2023-02-21T00:55:19;98294.91;;;9.40;52.56
46722;BME280;32455;43.430;23.136;2023-02-21T00:58:23;98299.69;;;9.31;52.98
46722;BME280;32455;43.430;23.136;2023-02-21T01:01:27;98286.72;;;9.21;53.40
46722;BME280;32455;43.430;23.136;2023-02-21T01:04:32;98289.84;;;9.05;54.17
46722;BME280;32455;43.430;23.136;2023-02-21T01:07:36;98293.97;;;9.08;54.01
46722;BME280;32455;43.430;23.136;2023-02-21T01:10:40;98286.81;;;8.88;54.98
46722;BME280;32455;43.430;23.136;2023-02-21T01:13:44;98286.16;;;8.93;54.68
46722;BME280;32455;43.430;23.136;2023-02-21T01:16:49;98271.94;;;8.86;54.86
46722;BME280;32455;43.430;23.136;2023-02-21T01:19:53;98274.03;;;8.84;55.27
46722;BME280;32455;43.430;23.136;2023-02-21T01:22:57;98270.53;;;8.76;55.65
46722;BME280;32455;43.430;23.136;2023-02-21T01:26:01;98251.22;;;8.48;56.53
46722;BME280;32455;43.430;23.136;2023-02-21T01:29:05;98266.81;;;8.11;57.70
46722;BME280;32455;43.430;23.136;2023-02-21T01:32:09;98262.00;;;7.73;59.65
46722;BME280;32455;43.430;23.136;2023-02-21T01:35:14;98257.16;;;7.29;61.46
46722;BME280;32455;43.430;23.136;2023-02-21T01:38:18;98249.28;;;7.21;61.99
46722;BME280;32455;43.430;23.136;2023-02-21T01:41:22;98252.94;;;7.07;62.90
46722;BME280;32455;43.430;23.136;2023-02-21T01:44:39;98274.13;;;7.15;61.60
46722;BME280;32455;43.430;23.136;2023-02-21T01:47:43;98259.41;;;7.32;60.77
46722;BME280;32455;43.430;23.136;2023-02-21T01:50:47;98258.19;;;7.28;62.01
46722;BME280;32455;43.430;23.136;2023-02-21T01:53:52;98268.72;;;6.67;64.40
46722;BME280;32455;43.430;23.136;2023-02-21T01:56:58;98273.44;;;6.99;63.15
46722;BME280;32455;43.430;23.136;2023-02-21T02:00:06;98275.38;;;6.21;67.09
46722;BME280;32455;43.430;23.136;2023-02-21T02:03:14;98254.78;;;6.15;67.30
46722;BME280;32455;43.430;23.136;2023-02-21T02:06:19;98248.22;;;5.75;69.44
46722;BME280;32455;43.430;23.136;2023-02-21T02:09:23;98243.59;;;5.84;69.19
46722;BME280;32455;43.430;23.136;2023-02-21T02:12:51;98251.25;;;5.50;71.62
46722;BME280;32455;43.430;23.136;2023-02-21T02:15:44;98244.06;;;5.51;72.28
46722;BME280;32455;43.430;23.136;2023-02-21T02:30:58;98240.22;;;7.90;59.74
46722;BME280;32455;43.430;23.136;2023-02-21T02:34:20;98225.69;;;7.31;62.33
46722;BME280;32455;43.430;23.136;2023-02-21T02:37:13;98237.91;;;7.06;62.85
46722;BME280;32455;43.430;23.136;2023-02-21T02:43:11;98211.59;;;7.64;60.46
46722;BME280;32455;43.430;23.136;2023-02-21T02:46:08;98217.44;;;8.40;57.07
46722;BME280;32455;43.430;23.136;2023-02-21T02:52:09;98230.06;;;9.05;54.22
46722;BME280;32455;43.430;23.136;2023-02-21T02:55:04;98232.00;;;9.36;53.09
46722;BME280;32455;43.430;23.136;2023-02-21T02:58:04;98233.09;;;9.21;53.47
46722;BME280;32455;43.430;23.136;2023-02-21T03:04:25;98231.59;;;8.08;57.39
46722;BME280;32455;43.430;23.136;2023-02-21T03:13:20;98230.97;;;7.18;62.62
46722;BME280;32455;43.430;23.136;2023-02-21T03:16:17;98223.78;;;7.80;59.25
46722;BME280;32455;43.430;23.136;2023-02-21T03:19:18;98232.53;;;9.06;53.61
46722;BME280;32455;43.430;23.136;2023-02-21T03:22:18;98258.41;;;9.32;53.24
46722;BME280;32455;43.430;23.136;2023-02-21T03:25:05;98254.56;;;9.15;53.48
46722;BME280;32455;43.430;23.136;2023-02-21T03:27:52;98255.38;;;9.22;52.80
46722;BME280;32455;43.430;23.136;2023-02-21T03:30:40;98251.53;;;9.49;51.48
46722;BME280;32455;43.430;23.136;2023-02-21T03:33:27;98246.78;;;9.51;51.13
46722;BME280;32455;43.430;23.136;2023-02-21T03:36:13;98246.56;;;9.60;50.65
46722;BME280;32455;43.430;23.136;2023-02-21T03:38:59;98238.63;;;9.71;50.26
46722;BME280;32455;43.430;23.136;2023-02-21T03:41:44;98237.31;;;9.49;50.92
46722;BME280;32455;43.430;23.136;2023-02-21T03:44:29;98241.22;;;9.85;49.90
46722;BME280;32455;43.430;23.136;2023-02-21T03:47:15;98239.22;;;10.05;48.34
46722;BME280;32455;43.430;23.136;2023-02-21T03:50:01;98229.81;;;9.96;49.08
46722;BME280;32455;43.430;23.136;2023-02-21T03:52:47;98225.13;;;9.85;48.52
46722;BME280;32455;43.430;23.136;2023-02-21T03:55:33;98227.31;;;9.63;49.72
46722;BME280;32455;43.430;23.136;2023-02-21T03:58:18;98226.81;;;9.79;48.91
46722;BME280;32455;43.430;23.136;2023-02-21T04:01:03;98237.47;;;9.92;47.96
46722;BME280;32455;43.430;23.136;2023-02-21T04:03:48;98241.50;;;10.08;47.87
46722;BME280;32455;43.430;23.136;2023-02-21T04:06:34;98236.06;;;10.15;48.58
46722;BME280;32455;43.430;23.136;2023-02-21T04:09:19;98249.44;;;10.28;47.80
46722;BME280;32455;43.430;23.136;2023-02-21T04:12:05;98237.47;;;10.24;47.48
46722;BME280;32455;43.430;23.136;2023-02-21T04:14:49;98233.97;;;9.92;48.75
46722;BME280;32455;43.430;23.136;2023-02-21T04:17:35;98219.19;;;9.76;49.20
46722;BME280;32455;43.430;23.136;2023-02-21T04:20:20;98222.50;;;9.78;48.82
46722;BME280;32455;43.430;23.136;2023-02-21T04:23:06;98216.84;;;9.54;49.79
46722;BME280;32455;43.430;23.136;2023-02-21T04:25:51;98217.69;;;9.55;49.73
46722;BME280;32455;43.430;23.136;2023-02-21T04:28:36;98221.84;;;9.51;49.72
46722;BME280;32455;43.430;23.136;2023-02-21T04:31:22;98216.34;;;9.33;50.22
46722;BME280;32455;43.430;23.136;2023-02-21T04:34:07;98216.56;;;9.31;50.83
46722;BME280;32455;43.430;23.136;2023-02-21T04:36:52;98223.38;;;9.27;50.65
46722;BME280;32455;43.430;23.136;2023-02-21T04:39:37;98203.22;;;9.11;51.24
46722;BME280;32455;43.430;23.136;2023-02-21T04:42:23;98201.06;;;8.82;51.83
46722;BME280;32455;43.430;23.136;2023-02-21T04:45:08;98201.88;;;8.89;52.08
46722;BME280;32455;43.430;23.136;2023-02-21T04:47:54;98207.88;;;8.84;52.33
46722;BME280;32455;43.430;23.136;2023-02-21T04:50:39;98202.97;;;8.55;53.54
46722;BME280;32455;43.430;23.136;2023-02-21T04:53:24;98212.66;;;8.29;54.23
46722;BME280;32455;43.430;23.136;2023-02-21T04:56:10;98202.97;;;8.61;53.16
46722;BME280;32455;43.430;23.136;2023-02-21T04:58:56;98202.91;;;8.88;52.24
46722;BME280;32455;43.430;23.136;2023-02-21T05:01:42;98205.59;;;8.81;52.42
46722;BME280;32455;43.430;23.136;2023-02-21T05:04:27;98191.38;;;9.39;50.31
46722;BME280;32455;43.430;23.136;2023-02-21T05:07:12;98207.28;;;9.34;51.04
46722;BME280;32455;43.430;23.136;2023-02-21T05:09:58;98198.50;;;9.51;49.78
46722;BME280;32455;43.430;23.136;2023-02-21T05:12:43;98193.47;;;9.68;49.46
46722;BME280;32455;43.430;23.136;2023-02-21T05:15:29;98198.28;;;9.53;49.70
46722;BME280;32455;43.430;23.136;2023-02-21T05:18:15;98191.13;;;9.47;50.04
46722;BME280;32455;43.430;23.136;2023-02-21T05:21:07;98202.50;;;9.74;49.32
46722;BME280;32455;43.430;23.136;2023-02-21T05:23:52;98191.28;;;9.84;48.91
46722;BME280;32455;43.430;23.136;2023-02-21T05:26:41;98191.91;;;10.11;47.39
46722;BME280;32455;43.430;23.136;2023-02-21T05:29:26;98189.03;;;10.37;47.11
46722;BME280;32455;43.430;23.136;2023-02-21T05:32:12;98194.00;;;10.34;46.99
46722;BME280;32455;43.430;23.136;2023-02-21T05:34:57;98191.72;;;10.37;46.89
46722;BME280;32455;43.430;23.136;2023-02-21T05:37:42;98188.38;;;10.42;46.33
46722;BME280;32455;43.430;23.136;2023-02-21T05:40:28;98185.25;;;10.45;46.05
46722;BME280;32455;43.430;23.136;2023-02-21T05:43:13;98183.81;;;10.42;45.29
46722;BME280;32455;43.430;23.136;2023-02-21T05:45:59;98199.97;;;10.79;44.34
46722;BME280;32455;43.430;23.136;2023-02-21T05:48:44;98191.06;;;10.60;45.04
46722;BME280;32455;43.430;23.136;2023-02-21T05:51:38;98198.41;;;10.71;44.66
46722;BME280;32455;43.430;23.136;2023-02-21T05:54:24;98193.91;;;10.65;44.22
46722;BME280;32455;43.430;23.136;2023-02-21T05:57:09;98195.44;;;10.80;43.86
46722;BME280;32455;43.430;23.136;2023-02-21T05:59:54;98186.47;;;10.86;43.72
46722;BME280;32455;43.430;23.136;2023-02-21T06:02:40;98187.81;;;10.76;44.68
46722;BME280;32455;43.430;23.136;2023-02-21T06:05:24;98186.91;;;10.83;43.46
46722;BME280;32455;43.430;23.136;2023-02-21T06:08:10;98195.03;;;11.13;43.08
46722;BME280;32455;43.430;23.136;2023-02-21T06:10:55;98194.28;;;11.24;43.27
46722;BME280;32455;43.430;23.136;2023-02-21T06:13:40;98189.97;;;11.23;42.91
46722;BME280;32455;43.430;23.136;2023-02-21T06:16:26;98184.09;;;11.26;43.32
46722;BME280;32455;43.430;23.136;2023-02-21T06:19:14;98179.28;;;11.46;42.96
46722;BME280;32455;43.430;23.136;2023-02-21T06:22:00;98171.06;;;11.71;41.75
46722;BME280;32455;43.430;23.136;2023-02-21T06:24:45;98175.13;;;11.92;41.79
46722;BME280;32455;43.430;23.136;2023-02-21T06:27:30;98169.91;;;12.09;41.12
46722;BME280;32455;43.430;23.136;2023-02-21T06:30:16;98176.81;;;12.28;41.15
46722;BME280;32455;43.430;23.136;2023-02-21T06:33:01;98173.22;;;12.46;39.85
46722;BME280;32455;43.430;23.136;2023-02-21T06:35:47;98175.41;;;12.49;39.81
46722;BME280;32455;43.430;23.136;2023-02-21T06:38:33;98169.44;;;12.47;39.54
46722;BME280;32455;43.430;23.136;2023-02-21T06:41:21;98166.28;;;12.39;39.89
46722;BME280;32455;43.430;23.136;2023-02-21T06:44:10;98169.19;;;12.37;39.50
46722;BME280;32455;43.430;23.136;2023-02-21T06:46:55;98174.03;;;12.47;39.68
46722;BME280;32455;43.430;23.136;2023-02-21T06:49:41;98174.25;;;12.69;39.71
46722;BME280;32455;43.430;23.136;2023-02-21T06:52:27;98175.59;;;12.95;39.54
46722;BME280;32455;43.430;23.136;2023-02-21T06:55:17;98163.72;;;13.08;39.00
46722;BME280;32455;43.430;23.136;2023-02-21T06:58:03;98152.22;;;13.12;38.79
46722;BME280;32455;43.430;23.136;2023-02-21T07:00:49;98159.94;;;13.32;38.86
46722;BME280;32455;43.430;23.136;2023-02-21T07:03:38;98142.47;;;13.51;37.53
46722;BME280;32455;43.430;23.136;2023-02-21T07:06:24;98154.84;;;13.64;37.44
46722;BME280;32455;43.430;23.136;2023-02-21T07:09:09;98139.00;;;13.39;37.89
46722;BME280;32455;43.430;23.136;2023-02-21T07:11:55;98152.41;;;13.34;38.12
46722;BME280;32455;43.430;23.136;2023-02-21T07:14:40;98151.50;;;13.28;38.32
46722;BME280;32455;43.430;23.136;2023-02-21T07:17:26;98156.22;;;13.10;38.29
46722;BME280;32455;43.430;23.136;2023-02-21T07:20:11;98144.38;;;13.11;38.61
46722;BME280;32455;43.430;23.136;2023-02-21T07:22:56;98145.16;;;13.23;38.24
46722;BME280;32455;43.430;23.136;2023-02-21T07:25:42;98142.09;;;13.31;37.92
46722;BME280;32455;43.430;23.136;2023-02-21T07:28:27;98136.22;;;13.80;38.00
46722;BME280;32455;43.430;23.136;2023-02-21T07:31:13;98141.13;;;14.16;36.54
46722;BME280;32455;43.430;23.136;2023-02-21T07:33:58;98138.59;;;14.26;36.48
46722;BME280;32455;43.430;23.136;2023-02-21T07:36:44;98138.88;;;14.47;36.13
46722;BME280;32455;43.430;23.136;2023-02-21T07:39:29;98127.25;;;14.63;35.59
46722;BME280;32455;43.430;23.136;2023-02-21T07:42:14;98136.84;;;14.71;35.55
46722;BME280;32455;43.430;23.136;2023-02-21T07:45:00;98139.16;;;14.84;35.48
46722;BME280;32455;43.430;23.136;2023-02-21T07:47:45;98135.84;;;14.99;35.57
46722;BME280;32455;43.430;23.136;2023-02-21T07:50:31;98136.13;;;15.02;34.29
46722;BME280;32455;43.430;23.136;2023-02-21T07:53:16;98129.69;;;15.03;33.49
46722;BME280;32455;43.430;23.136;2023-02-21T07:56:02;98134.38;;;15.13;34.31
46722;BME280;32455;43.430;23.136;2023-02-21T07:58:47;98136.00;;;15.63;31.97
46722;BME280;32455;43.430;23.136;2023-02-21T08:01:33;98125.75;;;15.65;33.31
46722;BME280;32455;43.430;23.136;2023-02-21T08:04:19;98122.59;;;15.73;32.41
46722;BME280;32455;43.430;23.136;2023-02-21T08:07:06;98145.66;;;16.08;30.87
46722;BME280;32455;43.430;23.136;2023-02-21T08:09:51;98127.28;;;16.15;32.22
46722;BME280;32455;43.430;23.136;2023-02-21T08:12:37;98134.69;;;16.30;31.11
46722;BME280;32455;43.430;23.136;2023-02-21T08:15:22;98139.97;;;16.47;30.72
46722;BME280;32455;43.430;23.136;2023-02-21T08:18:19;98137.59;;;17.08;26.93
46722;BME280;32455;43.430;23.136;2023-02-21T08:21:09;98144.06;;;17.75;26.96
46722;BME280;32455;43.430;23.136;2023-02-21T08:23:54;98146.53;;;17.82;23.95
46722;BME280;32455;43.430;23.136;2023-02-21T08:26:40;98157.97;;;18.04;24.57
46722;BME280;32455;43.430;23.136;2023-02-21T08:29:26;98143.00;;;17.96;24.88
46722;BME280;32455;43.430;23.136;2023-02-21T08:32:12;98134.03;;;18.21;23.81
46722;BME280;32455;43.430;23.136;2023-02-21T08:34:57;98155.19;;;18.45;24.35
46722;BME280;32455;43.430;23.136;2023-02-21T08:37:49;98130.19;;;18.38;24.25
46722;BME280;32455;43.430;23.136;2023-02-21T08:40:34;98141.88;;;18.48;23.37
46722;BME280;32455;43.430;23.136;2023-02-21T08:43:20;98158.78;;;18.30;22.83
46722;BME280;32455;43.430;23.136;2023-02-21T08:46:06;98160.38;;;18.46;23.34
46722;BME280;32455;43.430;23.136;2023-02-21T08:48:52;98165.78;;;18.62;23.82
46722;BME280;32455;43.430;23.136;2023-02-21T08:51:39;98166.63;;;18.72;22.57
46722;BME280;32455;43.430;23.136;2023-02-21T08:54:24;98156.84;;;18.71;21.90
46722;BME280;32455;43.430;23.136;2023-02-21T08:57:10;98141.59;;;18.60;23.47
46722;BME280;32455;43.430;23.136;2023-02-21T08:59:55;98150.00;;;18.69;22.36
46722;BME280;32455;43.430;23.136;2023-02-21T09:02:40;98141.00;;;18.84;22.79
46722;BME280;32455;43.430;23.136;2023-02-21T09:05:28;98152.97;;;18.98;24.27
46722;BME280;32455;43.430;23.136;2023-02-21T09:08:14;98129.47;;;19.12;22.92
46722;BME280;32455;43.430;23.136;2023-02-21T09:10:59;98144.69;;;19.18;24.12
46722;BME280;32455;43.430;23.136;2023-02-21T09:13:45;98144.91;;;19.32;22.44
46722;BME280;32455;43.430;23.136;2023-02-21T09:16:31;98155.06;;;19.16;22.98
46722;BME280;32455;43.430;23.136;2023-02-21T09:19:16;98151.59;;;18.95;23.43
46722;BME280;32455;43.430;23.136;2023-02-21T09:22:01;98142.63;;;18.90;23.46
46722;BME280;32455;43.430;23.136;2023-02-21T09:24:48;98152.63;;;19.15;22.24
46722;BME280;32455;43.430;23.136;2023-02-21T09:27:33;98147.44;;;19.13;22.49
46722;BME280;32455;43.430;23.136;2023-02-21T09:30:23;98154.38;;;19.45;23.77
46722;BME280;32455;43.430;23.136;2023-02-21T09:33:10;98149.22;;;19.38;22.05
46722;BME280;32455;43.430;23.136;2023-02-21T09:35:55;98153.84;;;19.43;22.83
46722;BME280;32455;43.430;23.136;2023-02-21T09:38:40;98138.38;;;19.33;23.41
46722;BME280;32455;43.430;23.136;2023-02-21T09:41:26;98149.88;;;19.20;22.35
46722;BME280;32455;43.430;23.136;2023-02-21T09:44:23;98140.31;;;19.27;23.14
46722;BME280;32455;43.430;23.136;2023-02-21T09:47:23;98142.59;;;19.55;23.57
46722;BME280;32455;43.430;23.136;2023-02-21T09:50:13;98142.31;;;19.56;23.56
46722;BME280;32455;43.430;23.136;2023-02-21T09:52:59;98142.38;;;19.46;23.49
46722;BME280;32455;43.430;23.136;2023-02-21T09:55:47;98139.31;;;19.58;22.85
46722;BME280;32455;43.430;23.136;2023-02-21T09:58:34;98130.09;;;19.54;23.06
46722;BME280;32455;43.430;23.136;2023-02-21T10:07:21;98116.72;;;19.52;22.26
46722;BME280;32455;43.430;23.136;2023-02-21T10:10:17;98114.03;;;19.47;23.28
46722;BME280;32455;43.430;23.136;2023-02-21T10:13:49;98101.19;;;19.52;22.45
46722;BME280;32455;43.430;23.136;2023-02-21T10:19:34;98102.91;;;19.83;22.56
46722;BME280;32455;43.430;23.136;2023-02-21T10:22:24;98082.41;;;19.90;22.16
46722;BME280;32455;43.430;23.136;2023-02-21T10:25:27;98094.88;;;20.01;22.13
46722;BME280;32455;43.430;23.136;2023-02-21T10:28:22;98072.50;;;19.99;21.73
46722;BME280;32455;43.430;23.136;2023-02-21T10:31:11;98073.66;;;20.22;22.13
46722;BME280;32455;43.430;23.136;2023-02-21T10:33:58;98077.97;;;20.29;22.42
46722;BME280;32455;43.430;23.136;2023-02-21T10:36:44;98070.41;;;19.91;21.25
46722;BME280;32455;43.430;23.136;2023-02-21T10:39:42;98066.59;;;19.92;21.46
46722;BME280;32455;43.430;23.136;2023-02-21T10:42:38;98066.59;;;20.21;22.08
46722;BME280;32455;43.430;23.136;2023-02-21T10:45:38;98049.38;;;20.50;21.92
46722;BME280;32455;43.430;23.136;2023-02-21T10:48:29;98072.38;;;20.44;21.89
46722;BME280;32455;43.430;23.136;2023-02-21T10:51:30;98062.75;;;20.22;21.46
46722;BME280;32455;43.430;23.136;2023-02-21T10:54:23;98073.28;;;20.05;21.78
46722;BME280;32455;43.430;23.136;2023-02-21T10:57:10;98055.13;;;19.90;21.16
46722;BME280;32455;43.430;23.136;2023-02-21T11:00:00;98048.75;;;20.05;22.56
46722;BME280;32455;43.430;23.136;2023-02-21T11:02:55;98037.66;;;20.20;22.92
46722;BME280;32455;43.430;23.136;2023-02-21T11:05:50;98055.00;;;20.35;22.25
46722;BME280;32455;43.430;23.136;2023-02-21T11:08:43;98046.66;;;20.50;22.24
46722;BME280;32455;43.430;23.136;2023-02-21T11:11:41;98059.16;;;20.56;22.29
46722;BME280;32455;43.430;23.136;2023-02-21T11:14:27;98057.66;;;20.40;21.39
46722;BME280;32455;43.430;23.136;2023-02-21T11:17:29;98056.47;;;20.51;22.58
46722;BME280;32455;43.430;23.136;2023-02-21T11:20:21;98040.00;;;20.32;21.04
46722;BME280;32455;43.430;23.136;2023-02-21T11:26:09;98029.19;;;20.46;21.48
46722;BME280;32455;43.430;23.136;2023-02-21T11:29:09;98033.19;;;20.59;21.74
46722;BME280;32455;43.430;23.136;2023-02-21T11:31:55;98022.63;;;20.47;22.11
46722;BME280;32455;43.430;23.136;2023-02-21T11:34:41;98034.34;;;20.53;22.51
46722;BME280;32455;43.430;23.136;2023-02-21T11:37:33;98032.53;;;20.67;22.43
46722;BME280;32455;43.430;23.136;2023-02-21T11:40:27;98022.16;;;20.69;21.98
46722;BME280;32455;43.430;23.136;2023-02-21T11:43:26;98023.22;;;20.92;22.69
46722;BME280;32455;43.430;23.136;2023-02-21T11:49:21;98013.50;;;20.62;21.75
46722;BME280;32455;43.430;23.136;2023-02-21T11:52:19;98009.16;;;20.61;22.89
46722;BME280;32455;43.430;23.136;2023-02-21T11:55:16;97998.31;;;20.26;21.29
46722;BME280;32455;43.430;23.136;2023-02-21T11:58:27;98015.47;;;20.03;21.84
46722;BME280;32455;43.430;23.136;2023-02-21T12:01:21;98015.09;;;20.15;21.48
46722;BME280;32455;43.430;23.136;2023-02-21T12:04:19;98015.72;;;20.07;21.57
46722;BME280;32455;43.430;23.136;2023-02-21T12:07:35;97996.91;;;20.29;21.80
46722;BME280;32455;43.430;23.136;2023-02-21T12:38:26;97961.19;;;19.43;23.21
46722;BME280;32455;43.430;23.136;2023-02-21T12:51:11;97957.41;;;19.00;24.78
46722;BME280;32455;43.430;23.136;2023-02-21T12:54:08;97942.03;;;19.19;23.95
46722;BME280;32455;43.430;23.136;2023-02-21T12:57:17;97955.31;;;19.60;24.45
46722;BME280;32455;43.430;23.136;2023-02-21T13:03:49;97950.50;;;19.81;24.41
46722;BME280;32455;43.430;23.136;2023-02-21T13:06:34;97947.50;;;20.07;24.08
46722;BME280;32455;43.430;23.136;2023-02-21T13:09:27;97941.59;;;19.99;23.40
46722;BME280;32455;43.430;23.136;2023-02-21T13:12:22;97937.34;;;20.12;23.41
46722;BME280;32455;43.430;23.136;2023-02-21T13:15:22;97939.44;;;20.20;23.56
46722;BME280;32455;43.430;23.136;2023-02-21T13:18:30;97934.34;;;20.14;23.08
46722;BME280;32455;43.430;23.136;2023-02-21T13:27:45;97934.72;;;19.49;23.24
46722;BME280;32455;43.430;23.136;2023-02-21T13:30:43;97921.94;;;19.79;23.13
46722;BME280;32455;43.430;23.136;2023-02-21T13:33:39;97934.72;;;19.78;23.23
46722;BME280;32455;43.430;23.136;2023-02-21T13:36:47;97940.34;;;19.63;23.33
46722;BME280;32455;43.430;23.136;2023-02-21T13:39:33;97933.94;;;19.43;23.56
46722;BME280;32455;43.430;23.136;2023-02-21T13:42:24;97927.06;;;19.51;23.68
46722;BME280;32455;43.430;23.136;2023-02-21T13:48:16;97943.81;;;19.68;22.51
46722;BME280;32455;43.430;23.136;2023-02-21T13:51:03;97932.78;;;19.84;23.14
46722;BME280;32455;43.430;23.136;2023-02-21T13:54:10;97917.72;;;19.86;22.49
46722;BME280;32455;43.430;23.136;2023-02-21T13:56:55;97919.75;;;19.75;23.15
46722;BME280;32455;43.430;23.136;2023-02-21T13:59:41;97919.94;;;19.84;23.13
46722;BME280;32455;43.430;23.136;2023-02-21T14:02:29;97922.38;;;19.86;23.45
46722;BME280;32455;43.430;23.136;2023-02-21T14:05:17;97930.03;;;19.84;23.45
46722;BME280;32455;43.430;23.136;2023-02-21T14:08:31;97932.19;;;19.87;23.97
46722;BME280;32455;43.430;23.136;2023-02-21T14:11:24;97926.25;;;19.50;24.73
46722;BME280;32455;43.430;23.136;2023-02-21T14:14:28;97922.06;;;19.29;24.08
46722;BME280;32455;43.430;23.136;2023-02-21T14:17:14;97923.31;;;19.08;24.05
46722;BME280;32455;43.430;23.136;2023-02-21T14:20:00;97926.94;;;18.98;24.38
46722;BME280;32455;43.430;23.136;2023-02-21T14:22:49;97924.81;;;18.90;24.63
46722;BME280;32455;43.430;23.136;2023-02-21T14:25:38;97928.44;;;18.80;24.38
46722;BME280;32455;43.430;23.136;2023-02-21T14:37:37;97917.97;;;18.92;24.90
46722;BME280;32455;43.430;23.136;2023-02-21T14:49:54;97916.31;;;19.01;24.44
46722;BME280;32455;43.430;23.136;2023-02-21T15:10:27;97909.41;;;18.70;25.60
46722;BME280;32455;43.430;23.136;2023-02-21T15:13:42;97924.16;;;18.53;25.25
46722;BME280;32455;43.430;23.136;2023-02-21T15:16:30;97915.69;;;18.65;25.81
46722;BME280;32455;43.430;23.136;2023-02-21T15:19:24;97926.69;;;18.94;25.01
46722;BME280;32455;43.430;23.136;2023-02-21T15:22:26;97928.03;;;19.65;24.51
46722;BME280;32455;43.430;23.136;2023-02-21T15:25:17;97925.69;;;19.48;24.10
46722;BME280;32455;43.430;23.136;2023-02-21T15:28:12;97934.47;;;18.72;25.23
46722;BME280;32455;43.430;23.136;2023-02-21T15:33:51;97926.56;;;18.06;26.97
46722;BME280;32455;43.430;23.136;2023-02-21T15:36:36;97933.16;;;17.69;26.65
46722;BME280;32455;43.430;23.136;2023-02-21T15:39:34;97936.66;;;17.64;27.13
46722;BME280;32455;43.430;23.136;2023-02-21T15:42:20;97928.00;;;17.57;26.98
46722;BME280;32455;43.430;23.136;2023-02-21T15:45:15;97935.88;;;17.13;28.66
46722;BME280;32455;43.430;23.136;2023-02-21T15:48:03;97931.81;;;17.41;27.01
46722;BME280;32455;43.430;23.136;2023-02-21T15:50:49;97928.56;;;17.44;26.44
46722;BME280;32455;43.430;23.136;2023-02-21T15:53:35;97939.44;;;17.44;27.23
46722;BME280;32455;43.430;23.136;2023-02-21T15:56:23;97944.03;;;17.23;27.44
46722;BME280;32455;43.430;23.136;2023-02-21T16:02:16;97936.66;;;16.83;27.15
46722;BME280;32455;43.430;23.136;2023-02-21T16:05:01;97947.78;;;16.86;28.35
46722;BME280;32455;43.430;23.136;2023-02-21T16:07:47;97938.22;;;16.58;28.50
46722;BME280;32455;43.430;23.136;2023-02-21T16:10:38;97947.19;;;16.64;27.81
46722;BME280;32455;43.430;23.136;2023-02-21T16:13:25;97953.19;;;16.71;27.72
46722;BME280;32455;43.430;23.136;2023-02-21T16:16:10;97950.41;;;16.61;28.34
46722;BME280;32455;43.430;23.136;2023-02-21T16:18:56;97959.28;;;16.36;28.62
46722;BME280;32455;43.430;23.136;2023-02-21T16:21:41;97965.47;;;16.26;28.17
46722;BME280;32455;43.430;23.136;2023-02-21T16:24:30;97972.38;;;16.49;28.04
46722;BME280;32455;43.430;23.136;2023-02-21T16:27:16;97967.94;;;16.27;29.02
46722;BME280;32455;43.430;23.136;2023-02-21T16:30:02;97974.22;;;15.86;29.80
46722;BME280;32455;43.430;23.136;2023-02-21T16:32:50;97976.94;;;15.86;30.25
46722;BME280;32455;43.430;23.136;2023-02-21T16:35:36;97974.66;;;15.40;31.26
46722;BME280;32455;43.430;23.136;2023-02-21T16:38:23;97983.00;;;15.66;29.26
46722;BME280;32455;43.430;23.136;2023-02-21T16:41:14;97976.22;;;15.63;29.92
46722;BME280;32455;43.430;23.136;2023-02-21T16:43:59;97963.31;;;15.43;30.95
46722;BME280;32455;43.430;23.136;2023-02-21T16:46:44;97982.44;;;15.32;31.02
46722;BME280;32455;43.430;23.136;2023-02-21T16:49:30;97976.69;;;15.23;31.61
46722;BME280;32455;43.430;23.136;2023-02-21T16:52:16;97982.88;;;14.91;32.63
46722;BME280;32455;43.430;23.136;2023-02-21T16:55:01;97987.06;;;14.77;33.11
46722;BME280;32455;43.430;23.136;2023-02-21T16:57:52;97996.25;;;14.76;32.81
46722;BME280;32455;43.430;23.136;2023-02-21T17:00:38;98005.94;;;14.72;32.73
46722;BME280;32455;43.430;23.136;2023-02-21T17:03:23;98008.44;;;13.96;34.64
46722;BME280;32455;43.430;23.136;2023-02-21T17:06:16;98008.72;;;13.27;35.42
46722;BME280;32455;43.430;23.136;2023-02-21T17:09:03;98016.44;;;13.07;36.50
46722;BME280;32455;43.430;23.136;2023-02-21T17:11:48;98020.53;;;12.40;37.77
46722;BME280;32455;43.430;23.136;2023-02-21T17:14:34;98018.19;;;12.32;38.65
46722;BME280;32455;43.430;23.136;2023-02-21T17:17:19;98022.34;;;12.11;39.79